createdAt,value
2024-03-12T00:01:45.022Z,2.80
2024-03-12T00:04:12.294Z,2.50
2024-03-12T00:06:39.352Z,2.60
2024-03-12T00:09:07.622Z,2.70
2024-03-12T00:11:35.938Z,2.70
2024-03-12T00:14:03.533Z,2.40
2024-03-12T00:16:33.447Z,2.90
2024-03-12T00:19:01.763Z,2.60
2024-03-12T00:21:29.262Z,3.00
2024-03-12T00:23:56.027Z,3.10
2024-03-12T00:26:22.658Z,3.00
2024-03-12T00:28:49.341Z,2.30
2024-03-12T00:31:17.700Z,2.60
2024-03-12T00:33:48.267Z,2.90
2024-03-12T00:36:15.207Z,2.20
2024-03-12T00:38:42.606Z,2.70
2024-03-12T00:41:09.231Z,2.40
2024-03-12T00:43:36.808Z,2.50
2024-03-12T00:48:33.281Z,2.50
2024-03-12T00:51:00.258Z,3.10
2024-03-12T00:53:27.418Z,3.50
2024-03-12T00:55:54.533Z,2.40
2024-03-12T00:58:22.434Z,3.10
2024-03-12T01:00:50.890Z,2.60
2024-03-12T01:03:18.477Z,3.00
2024-03-12T01:05:45.673Z,3.10
2024-03-12T01:08:13.187Z,2.30
2024-03-12T01:13:11.441Z,2.40
2024-03-12T01:15:40.289Z,2.40
2024-03-12T01:18:09.543Z,2.70
2024-03-12T01:20:36.715Z,3.00
2024-03-12T01:23:05.707Z,3.00
2024-03-12T01:25:35.494Z,2.80
2024-03-12T01:28:02.941Z,2.80
2024-03-12T01:30:31.816Z,2.60
2024-03-12T01:32:59.366Z,3.00
2024-03-12T01:37:54.176Z,2.20
2024-03-12T01:40:31.949Z,2.40
2024-03-12T01:43:04.062Z,2.40
2024-03-12T01:45:33.337Z,3.20
2024-03-12T01:48:11.271Z,3.00
2024-03-12T01:50:40.993Z,2.60
2024-03-12T01:53:08.571Z,3.10
2024-03-12T01:55:44.597Z,2.80
2024-03-12T01:58:15.896Z,3.30
2024-03-12T02:00:42.560Z,3.00
2024-03-12T02:03:10.309Z,2.70
2024-03-12T02:05:36.855Z,3.10
2024-03-12T02:08:03.651Z,2.80
2024-03-12T02:10:30.377Z,3.20
2024-03-12T02:12:58.040Z,3.40
2024-03-12T02:15:24.993Z,2.90
2024-03-12T02:17:54.997Z,3.40
2024-03-12T02:20:23.057Z,3.10
2024-03-12T02:22:56.000Z,3.20
2024-03-12T02:25:23.261Z,3.10
2024-03-12T02:27:51.813Z,2.70
2024-03-12T02:30:19.038Z,3.10
2024-03-12T02:32:49.783Z,2.80
2024-03-12T02:35:17.892Z,2.80
2024-03-12T02:37:45.360Z,3.00
2024-03-12T02:40:16.247Z,3.30
2024-03-12T02:42:44.838Z,3.20
2024-03-12T02:45:21.317Z,3.00
2024-03-12T02:47:48.976Z,3.20
2024-03-12T02:50:16.636Z,3.30
2024-03-12T02:52:43.781Z,3.50
2024-03-12T02:55:10.984Z,3.60
2024-03-12T02:57:38.250Z,3.80
2024-03-12T03:00:16.184Z,3.60
2024-03-12T03:02:45.447Z,2.90
2024-03-12T03:05:13.718Z,3.10
2024-03-12T03:07:42.441Z,3.40
2024-03-12T03:10:11.924Z,3.70
2024-03-12T03:12:39.693Z,3.40
2024-03-12T03:15:06.987Z,3.20
2024-03-12T03:17:33.986Z,3.00
2024-03-12T03:20:00.671Z,3.60
2024-03-12T03:22:27.210Z,3.60
2024-03-12T03:24:53.997Z,3.80
2024-03-12T03:27:21.135Z,3.10
2024-03-12T03:29:47.734Z,3.70
2024-03-12T03:32:14.311Z,3.50
2024-03-12T03:34:43.724Z,3.90
2024-03-12T03:37:10.737Z,3.30
2024-03-12T03:39:38.507Z,3.80
2024-03-12T03:42:05.284Z,3.70
2024-03-12T03:44:31.836Z,3.40
2024-03-12T03:46:58.375Z,3.90
2024-03-12T03:49:24.957Z,3.60
2024-03-12T03:51:53.750Z,3.50
2024-03-12T03:54:20.505Z,3.50
2024-03-12T03:56:47.117Z,3.20
2024-03-12T03:59:17.050Z,3.40
2024-03-12T04:01:44.204Z,3.20
2024-03-12T04:04:16.753Z,3.90
2024-03-12T04:06:44.975Z,3.60
2024-03-12T04:09:12.737Z,3.20
2024-03-12T04:14:09.036Z,3.70
2024-03-12T04:16:35.919Z,3.40
2024-03-12T04:19:02.566Z,4.20
2024-03-12T04:21:29.426Z,3.80
2024-03-12T04:23:56.465Z,3.80
2024-03-12T04:26:23.417Z,3.70
2024-03-12T04:28:50.390Z,3.60
2024-03-12T04:31:21.669Z,4.40
2024-03-12T04:33:48.783Z,4.50
2024-03-12T04:36:15.503Z,3.70
2024-03-12T04:38:42.453Z,3.40
2024-03-12T04:41:10.807Z,3.40
2024-03-12T04:43:38.007Z,4.10
2024-03-12T04:46:05.591Z,3.60
2024-03-12T04:48:32.378Z,4.20
2024-03-12T04:50:59.269Z,4.00
2024-03-12T04:53:26.506Z,4.10
2024-03-12T04:55:53.230Z,4.10
2024-03-12T04:58:19.796Z,4.50
2024-03-12T05:00:46.752Z,4.00
2024-03-12T05:03:14.307Z,4.20
2024-03-12T05:05:41.704Z,3.90
2024-03-12T05:08:09.037Z,4.10
2024-03-12T05:10:37.408Z,3.70
2024-03-12T05:13:04.186Z,4.40
2024-03-12T05:15:31.894Z,4.10
2024-03-12T05:17:58.745Z,4.60
2024-03-12T05:20:26.912Z,8.00
2024-03-12T05:22:55.061Z,4.70
2024-03-12T05:25:28.081Z,4.80
2024-03-12T05:27:54.970Z,4.00
2024-03-12T05:30:24.436Z,5.90
2024-03-12T05:32:54.374Z,9.10
2024-03-12T05:35:23.337Z,4.40
2024-03-12T05:38:12.784Z,32.40
2024-03-12T05:40:57.995Z,13.20
2024-03-12T05:43:43.250Z,16.00
2024-03-12T05:46:28.923Z,9.50
2024-03-12T05:51:23.082Z,8.40
2024-03-12T05:53:50.153Z,9.20
2024-03-12T05:56:19.748Z,10.80
2024-03-12T05:58:47.458Z,5.50
2024-03-12T06:03:41.839Z,5.40
2024-03-12T06:06:09.134Z,4.70
2024-03-12T06:08:36.390Z,4.50
2024-03-12T06:11:03.395Z,6.50
2024-03-12T06:13:30.208Z,20.10
2024-03-12T06:15:56.904Z,15.10
2024-03-12T06:18:24.297Z,21.30
2024-03-12T06:20:52.307Z,12.80
2024-03-12T06:23:24.055Z,13.60
2024-03-12T06:25:52.320Z,8.50
2024-03-12T06:28:22.763Z,5.50
2024-03-12T06:30:49.797Z,5.50
2024-03-12T06:33:18.574Z,4.70
2024-03-12T06:35:50.144Z,4.20
2024-03-12T06:38:17.024Z,4.90
2024-03-12T06:40:44.874Z,4.30
2024-03-12T06:43:15.309Z,5.30
2024-03-12T06:45:42.424Z,6.20
2024-03-12T06:48:09.556Z,5.40
2024-03-12T06:50:36.228Z,5.10
2024-03-12T06:53:06.308Z,4.70
2024-03-12T06:55:33.323Z,5.80
2024-03-12T06:58:08.710Z,4.90
2024-03-12T07:00:39.098Z,5.90
2024-03-12T07:03:06.522Z,4.60
2024-03-12T07:05:44.684Z,4.50
2024-03-12T07:08:11.669Z,4.20
2024-03-12T07:10:41.897Z,4.10
2024-03-12T07:13:09.741Z,4.30
2024-03-12T07:15:45.682Z,4.30
2024-03-12T07:18:12.909Z,4.90
2024-03-12T07:20:40.337Z,4.30
2024-03-12T07:23:07.594Z,4.70
2024-03-12T07:25:34.658Z,3.90
2024-03-12T07:28:07.061Z,4.00
2024-03-12T07:30:34.935Z,4.30
2024-03-12T07:33:06.023Z,4.80
2024-03-12T07:35:36.433Z,4.60
2024-03-12T07:38:05.040Z,4.20
2024-03-12T07:40:35.782Z,4.10
2024-03-12T07:43:05.717Z,4.00
2024-03-12T07:45:32.814Z,4.30
2024-03-12T07:47:59.975Z,3.90
2024-03-12T07:50:32.057Z,4.30
2024-03-12T07:52:58.694Z,3.80
2024-03-12T07:55:26.489Z,4.00
2024-03-12T07:57:53.424Z,4.90
2024-03-12T08:00:20.804Z,4.40
2024-03-12T08:02:47.735Z,4.50
2024-03-12T08:05:14.699Z,4.50
2024-03-12T08:07:46.345Z,4.20
2024-03-12T08:10:14.076Z,4.60
2024-03-12T08:12:41.494Z,4.20
2024-03-12T08:15:10.757Z,4.40
2024-03-12T08:17:39.587Z,4.90
2024-03-12T08:20:11.628Z,4.40
2024-03-12T08:22:39.782Z,5.50
2024-03-12T08:25:10.886Z,4.70
2024-03-12T08:27:41.103Z,5.60
2024-03-12T08:30:13.302Z,4.90
2024-03-12T08:32:43.494Z,4.60
2024-03-12T08:35:12.264Z,5.00
2024-03-12T08:37:41.585Z,5.00
2024-03-12T08:40:14.446Z,4.90
2024-03-12T08:42:47.757Z,5.50
2024-03-12T08:45:24.614Z,4.90
2024-03-12T08:47:51.725Z,5.20
2024-03-12T08:50:18.615Z,5.40
2024-03-12T08:52:45.646Z,5.40
2024-03-12T08:55:12.388Z,5.00
2024-03-12T08:57:39.091Z,4.80
2024-03-12T09:00:12.482Z,4.90
2024-03-12T09:02:42.743Z,5.40
2024-03-12T09:05:10.442Z,5.40
2024-03-12T09:07:38.167Z,5.20
2024-03-12T09:12:41.968Z,5.40
2024-03-12T09:15:10.867Z,5.90
2024-03-12T09:17:38.570Z,5.90
2024-03-12T09:22:33.723Z,5.00
2024-03-12T09:25:00.630Z,5.10
2024-03-12T09:27:27.584Z,5.50
2024-03-12T09:29:54.547Z,5.50
2024-03-12T09:32:23.164Z,4.80
2024-03-12T09:34:53.095Z,6.20
2024-03-12T09:37:20.332Z,5.80
2024-03-12T09:39:47.460Z,5.60
2024-03-12T09:42:19.527Z,6.80
2024-03-12T09:44:46.801Z,6.50
2024-03-12T09:47:14.059Z,5.60
2024-03-12T09:49:41.737Z,6.30
2024-03-12T09:52:08.749Z,6.40
2024-03-12T09:54:35.916Z,6.20
2024-03-12T09:57:04.443Z,5.60
2024-03-12T09:59:33.035Z,6.90
2024-03-12T10:02:04.769Z,5.80
2024-03-12T10:04:34.115Z,6.00
2024-03-12T10:07:01.534Z,6.60
2024-03-12T10:09:29.596Z,6.00
2024-03-12T10:11:57.092Z,6.20
2024-03-12T10:14:23.773Z,6.50
2024-03-12T10:16:50.759Z,5.60
2024-03-12T10:19:18.204Z,5.90
2024-03-12T10:21:50.379Z,6.40
2024-03-12T10:24:19.065Z,7.70
2024-03-12T10:26:46.791Z,6.20
2024-03-12T10:29:18.017Z,7.30
2024-03-12T10:31:49.116Z,6.80
2024-03-12T10:34:21.957Z,7.10
2024-03-12T10:36:51.184Z,7.30
2024-03-12T10:39:30.138Z,5.80
2024-03-12T10:42:00.168Z,6.70
2024-03-12T10:44:31.990Z,6.40
2024-03-12T10:47:02.407Z,6.40
2024-03-12T10:49:29.430Z,7.00
2024-03-12T10:51:57.768Z,6.50
2024-03-12T10:54:30.648Z,6.50
2024-03-12T10:56:59.650Z,6.80
2024-03-12T10:59:32.540Z,6.70
2024-03-12T11:02:00.048Z,7.20
2024-03-12T11:04:27.244Z,6.90
2024-03-12T11:06:55.182Z,9.20
2024-03-12T11:09:23.346Z,9.20
2024-03-12T11:11:50.784Z,8.90
2024-03-12T11:14:17.925Z,7.10
2024-03-12T11:16:44.719Z,6.90
2024-03-12T11:19:20.722Z,7.10
2024-03-12T11:21:52.187Z,8.50
2024-03-12T11:24:27.210Z,8.60
2024-03-12T11:26:54.171Z,7.10
2024-03-12T11:29:20.973Z,6.30
2024-03-12T11:31:47.758Z,7.10
2024-03-12T11:34:32.268Z,6.70
2024-03-12T11:37:18.757Z,7.50
2024-03-12T11:39:45.651Z,7.20
2024-03-12T11:42:16.048Z,7.40
2024-03-12T11:44:56.646Z,8.40
2024-03-12T11:47:36.263Z,8.30
2024-03-12T11:50:09.061Z,7.00
2024-03-12T11:52:35.752Z,7.10
2024-03-12T11:55:04.891Z,7.80
2024-03-12T11:57:32.087Z,7.60
2024-03-12T12:00:00.211Z,6.80
2024-03-12T12:02:28.167Z,7.70
2024-03-12T12:04:56.828Z,7.60
2024-03-12T12:07:25.995Z,7.20
2024-03-12T12:09:53.956Z,7.40
2024-03-12T12:12:21.579Z,7.40
2024-03-12T12:14:49.501Z,6.70
2024-03-12T12:17:24.699Z,6.70
2024-03-12T12:20:18.031Z,5.70
2024-03-12T12:22:47.278Z,6.40
2024-03-12T12:25:17.514Z,5.70
2024-03-12T12:27:44.348Z,5.40
2024-03-12T12:30:12.405Z,5.80
2024-03-12T12:32:42.239Z,6.10
2024-03-12T12:35:14.839Z,5.30
2024-03-12T12:37:45.921Z,5.80
2024-03-12T12:40:18.452Z,6.00
2024-03-12T12:42:46.739Z,5.90
2024-03-12T12:45:15.132Z,5.70
2024-03-12T12:47:52.194Z,5.50
2024-03-12T12:50:29.703Z,5.30
2024-03-12T12:53:00.638Z,4.60
2024-03-12T12:55:28.268Z,4.60
2024-03-12T12:58:07.739Z,5.40
2024-03-12T13:00:41.569Z,4.60
2024-03-12T13:03:20.234Z,5.60
2024-03-12T13:05:47.637Z,4.90
2024-03-12T13:11:11.516Z,4.30
2024-03-12T13:13:40.566Z,4.60
2024-03-12T13:16:19.301Z,6.10
2024-03-12T13:18:48.746Z,4.90
2024-03-12T13:21:17.826Z,4.50
2024-03-12T13:23:48.261Z,4.90
2024-03-12T13:26:16.348Z,4.00
2024-03-12T13:28:44.288Z,5.50
2024-03-12T13:31:11.666Z,5.00
2024-03-12T13:36:14.144Z,4.90
2024-03-12T13:38:41.776Z,4.30
2024-03-12T13:41:10.500Z,4.70
2024-03-12T13:43:38.717Z,5.70
2024-03-12T13:46:08.941Z,4.80
2024-03-12T13:48:41.469Z,4.90
2024-03-12T13:51:09.279Z,4.80
2024-03-12T13:53:35.985Z,4.90
2024-03-12T13:56:03.417Z,4.90
2024-03-12T13:58:30.720Z,5.60
2024-03-12T14:00:59.322Z,5.00
2024-03-12T14:03:31.865Z,5.00
2024-03-12T14:06:00.384Z,4.50
2024-03-12T14:08:27.640Z,5.10
2024-03-12T14:10:54.422Z,6.10
2024-03-12T14:13:23.168Z,6.20
2024-03-12T14:15:50.023Z,5.40
2024-03-12T14:18:17.635Z,5.90
2024-03-12T14:20:44.263Z,5.90
2024-03-12T14:23:10.885Z,6.00
2024-03-12T14:25:38.071Z,5.30
2024-03-12T14:28:07.987Z,5.80
2024-03-12T14:30:34.949Z,5.90
2024-03-12T14:33:02.182Z,6.40
2024-03-12T14:35:28.841Z,5.90
2024-03-12T14:37:57.165Z,6.00
2024-03-12T14:40:23.807Z,7.10
2024-03-12T14:42:50.778Z,6.00
2024-03-12T14:45:19.050Z,6.30
2024-03-12T14:47:46.630Z,6.30
2024-03-12T14:50:18.098Z,6.70
2024-03-12T14:52:45.972Z,6.80
2024-03-12T14:55:13.169Z,7.80
2024-03-12T14:57:39.889Z,6.60
2024-03-12T15:00:11.287Z,6.90
2024-03-12T15:02:38.443Z,8.20
2024-03-12T15:05:17.153Z,7.10
2024-03-12T15:07:44.810Z,8.50
2024-03-12T15:10:12.724Z,7.50
2024-03-12T15:12:41.500Z,8.10
2024-03-12T15:15:13.604Z,10.20
2024-03-12T15:17:42.605Z,9.10
2024-03-12T15:20:17.186Z,8.90
2024-03-12T15:22:46.737Z,21.60
2024-03-12T15:25:13.926Z,9.10
2024-03-12T15:27:45.195Z,7.80
2024-03-12T15:30:13.162Z,7.00
2024-03-12T15:32:40.604Z,8.40
2024-03-12T15:37:36.958Z,7.40
2024-03-12T15:40:12.929Z,8.40
2024-03-12T15:42:45.257Z,8.40
2024-03-12T15:45:15.703Z,8.30
2024-03-12T15:47:43.981Z,9.70
2024-03-12T15:50:16.623Z,8.30
2024-03-12T15:52:43.804Z,8.90
2024-03-12T15:55:11.359Z,8.60
2024-03-12T15:57:40.277Z,9.00
2024-03-12T16:00:09.606Z,8.50
2024-03-12T16:02:36.312Z,8.00
2024-03-12T16:05:06.757Z,7.70
2024-03-12T16:07:36.749Z,8.40
2024-03-12T16:10:05.996Z,9.60
2024-03-12T16:12:32.877Z,9.20
2024-03-12T16:14:59.695Z,9.40
2024-03-12T16:17:30.700Z,8.80
2024-03-12T16:19:57.478Z,9.20
2024-03-12T16:22:24.030Z,8.60
2024-03-12T16:24:50.667Z,8.50
2024-03-12T16:27:17.490Z,8.20
2024-03-12T16:29:44.332Z,9.20
2024-03-12T16:32:11.773Z,9.20
2024-03-12T16:34:40.211Z,8.50
2024-03-12T16:37:07.388Z,9.30
2024-03-12T16:39:36.306Z,10.20
2024-03-12T16:42:05.667Z,7.90
2024-03-12T16:44:32.868Z,8.50
2024-03-12T16:47:05.413Z,10.10
2024-03-12T16:49:33.380Z,10.00
2024-03-12T16:52:02.086Z,10.10
2024-03-12T16:54:30.346Z,8.20
2024-03-12T16:56:58.994Z,9.30
2024-03-12T16:59:25.840Z,10.30
2024-03-12T17:01:53.851Z,9.40
2024-03-12T17:04:20.853Z,8.50
2024-03-12T17:06:48.589Z,9.20
2024-03-12T17:09:15.473Z,9.10
2024-03-12T17:11:42.450Z,8.90
2024-03-12T17:14:14.938Z,9.40
2024-03-12T17:16:49.667Z,9.00
2024-03-12T17:19:20.408Z,9.50
2024-03-12T17:21:47.163Z,9.80
2024-03-12T17:24:14.756Z,9.20
2024-03-12T17:26:41.600Z,11.30
2024-03-12T17:29:12.769Z,10.20
2024-03-12T17:31:39.878Z,9.10
2024-03-12T17:34:07.343Z,8.60
2024-03-12T17:39:10.872Z,8.00
2024-03-12T17:41:40.341Z,9.30
2024-03-12T17:44:08.071Z,10.00
2024-03-12T17:46:44.747Z,9.00
2024-03-12T17:49:17.579Z,8.90
2024-03-12T17:51:45.820Z,9.30
2024-03-12T17:54:15.415Z,9.20
2024-03-12T17:56:49.099Z,8.90
2024-03-12T17:59:20.621Z,8.40
2024-03-12T18:01:48.579Z,7.80
2024-03-12T18:04:15.928Z,8.80
2024-03-12T18:06:44.209Z,9.90
2024-03-12T18:09:12.942Z,8.70
2024-03-12T18:11:41.073Z,9.90
2024-03-12T18:14:10.365Z,9.70
2024-03-12T18:16:38.839Z,9.60
2024-03-12T18:19:07.475Z,9.90
2024-03-12T18:21:34.466Z,10.40
2024-03-12T18:24:01.739Z,10.30
2024-03-12T18:26:28.850Z,11.10
2024-03-12T18:28:57.870Z,9.90
2024-03-12T18:31:24.896Z,10.50
2024-03-12T18:33:51.683Z,10.60
2024-03-12T18:36:18.821Z,10.60
2024-03-12T18:38:45.518Z,10.30
2024-03-12T18:41:13.949Z,12.00
2024-03-12T18:43:41.178Z,10.00
2024-03-12T18:46:08.001Z,12.60
2024-03-12T18:48:35.664Z,10.80
2024-03-12T18:51:03.774Z,13.80
2024-03-12T18:53:31.086Z,13.20
2024-03-12T18:55:58.836Z,11.70
2024-03-12T18:58:27.516Z,12.70
2024-03-12T19:00:56.630Z,13.70
2024-03-12T19:03:39.563Z,13.20
2024-03-12T19:06:19.071Z,15.60
2024-03-12T19:08:53.774Z,14.20
2024-03-12T19:11:21.313Z,13.70
2024-03-12T19:16:16.164Z,14.80
2024-03-12T19:18:49.363Z,13.80
2024-03-12T19:21:17.676Z,14.70
2024-03-12T19:23:49.771Z,13.50
2024-03-12T19:26:18.502Z,15.30
2024-03-12T19:28:46.422Z,13.40
2024-03-12T19:31:13.764Z,15.70
2024-03-12T19:33:40.954Z,17.30
2024-03-12T19:36:08.201Z,14.00
2024-03-12T19:38:35.127Z,15.90
2024-03-12T19:41:02.759Z,17.10
2024-03-12T19:43:30.434Z,16.50
2024-03-12T19:46:01.822Z,16.30
2024-03-12T19:48:29.264Z,15.80
2024-03-12T19:50:56.524Z,17.00
2024-03-12T19:53:23.304Z,15.60
2024-03-12T19:55:52.133Z,15.00
2024-03-12T19:58:19.643Z,15.60
2024-03-12T20:00:49.364Z,15.60
2024-03-12T20:03:19.375Z,16.50
2024-03-12T20:08:13.375Z,14.90
2024-03-12T20:10:40.100Z,15.80
2024-03-12T20:13:07.731Z,15.90
2024-03-12T20:15:36.389Z,16.70
2024-03-12T20:18:03.259Z,16.90
2024-03-12T20:20:30.271Z,18.50
2024-03-12T20:22:59.120Z,17.00
2024-03-12T20:25:27.722Z,17.10
2024-03-12T20:27:55.181Z,14.10
2024-03-12T20:30:28.654Z,14.70
2024-03-12T20:33:00.538Z,17.90
2024-03-12T20:35:29.258Z,16.90
2024-03-12T20:37:56.923Z,17.00
2024-03-12T20:40:27.000Z,17.00
2024-03-12T20:42:55.713Z,18.50
2024-03-12T20:45:23.234Z,18.70
2024-03-12T20:47:50.291Z,18.50
2024-03-12T20:50:20.360Z,20.60
2024-03-12T20:52:48.485Z,19.10
2024-03-12T20:55:16.227Z,18.60
2024-03-12T20:57:48.034Z,18.10
2024-03-12T21:00:25.217Z,18.70
2024-03-12T21:02:53.251Z,16.20
2024-03-12T21:05:20.285Z,18.50
2024-03-12T21:07:46.828Z,18.80
2024-03-12T21:10:13.560Z,19.20
2024-03-12T21:12:43.994Z,17.40
2024-03-12T21:15:11.123Z,18.20
2024-03-12T21:17:38.946Z,16.70
2024-03-12T21:20:13.636Z,17.40
2024-03-12T21:22:40.447Z,19.00
2024-03-12T21:25:08.446Z,17.50
2024-03-12T21:27:35.222Z,18.10
2024-03-12T21:30:07.139Z,15.70
2024-03-12T21:32:34.284Z,17.00
2024-03-12T21:35:01.000Z,16.80
2024-03-12T21:37:27.658Z,17.50
2024-03-12T21:39:54.177Z,18.30
2024-03-12T21:42:22.876Z,17.20
2024-03-12T21:44:49.664Z,15.60
2024-03-12T21:47:16.156Z,17.50
2024-03-12T21:49:42.700Z,17.60
2024-03-12T21:52:09.996Z,16.30
2024-03-12T21:54:36.818Z,17.10
2024-03-12T21:57:04.120Z,15.30
2024-03-12T21:59:31.661Z,16.20
2024-03-12T22:02:00.648Z,16.40
2024-03-12T22:04:29.089Z,14.90
2024-03-12T22:09:25.823Z,14.70
2024-03-12T22:11:52.370Z,15.30
2024-03-12T22:14:19.257Z,15.70
2024-03-12T22:16:46.936Z,15.60
2024-03-12T22:21:49.037Z,14.40
2024-03-12T22:24:23.837Z,14.00
2024-03-12T22:26:54.823Z,13.70
2024-03-12T22:29:21.646Z,12.30
2024-03-12T22:31:49.872Z,12.40
2024-03-12T22:34:17.796Z,13.50
2024-03-12T22:36:45.536Z,13.60
2024-03-12T22:39:14.433Z,13.30
2024-03-12T22:41:48.929Z,12.80
2024-03-12T22:44:17.002Z,13.10
2024-03-12T22:49:12.837Z,11.40
2024-03-12T22:51:41.469Z,12.20
2024-03-12T22:54:11.556Z,12.60
2024-03-12T22:56:39.071Z,11.60
2024-03-12T22:59:07.796Z,11.90
2024-03-12T23:01:38.277Z,10.80
2024-03-12T23:04:05.991Z,10.70
2024-03-12T23:06:32.792Z,11.40
2024-03-12T23:08:59.663Z,11.10
2024-03-12T23:11:28.144Z,10.90
2024-03-12T23:13:54.897Z,11.60
2024-03-12T23:16:21.855Z,10.50
2024-03-12T23:18:54.157Z,10.70
2024-03-12T23:21:20.847Z,11.40
2024-03-12T23:23:47.406Z,10.10
2024-03-12T23:26:17.516Z,10.80
2024-03-12T23:28:44.509Z,11.50
2024-03-12T23:31:11.307Z,10.90
2024-03-12T23:33:40.694Z,10.00
2024-03-12T23:36:08.793Z,11.20
2024-03-12T23:38:36.542Z,11.40
2024-03-12T23:41:03.545Z,10.90
2024-03-12T23:43:31.670Z,11.70
2024-03-12T23:45:58.902Z,10.50
2024-03-12T23:48:25.680Z,12.10
2024-03-12T23:50:52.458Z,12.40
2024-03-12T23:53:18.950Z,11.10
2024-03-12T23:55:45.587Z,11.00
2024-03-12T23:58:12.518Z,11.20
